Terminal Aerodrome Forecast
Issued by NWS Paducah, KY

Home | Current Version | Previous Version | Graphics & Text | Print | Product List | Glossary On
Versions: 1 2 3 4 5 6 7 8 9 10 11 12 13 14 15 16
036
FTUS43 KPAH 200740 AAA
TAFEVV
TAF AMD
KEVV 200740Z 2008/2106 00000KT 3SM BR SKC
      TEMPO 2008/2012 1SM BR
     FM201500 16007KT P6SM SCT300=

USA.gov is the U.S. government's official web portal to all federal, state and local government web resources and services.